sensor_id;sensor_type;location;lat;lon;timestamp;pressure;altitude;pressure_sealevel;temperature;humidity
24280;BME280;12395;42.808;23.408;2022-12-18T00:01:30;95640.25;;;7.66;100.00
24280;BME280;12395;42.808;23.408;2022-12-18T00:03:57;95627.97;;;7.51;100.00
24280;BME280;12395;42.808;23.408;2022-12-18T00:06:24;95636.69;;;7.51;100.00
24280;BME280;12395;42.808;23.408;2022-12-18T00:08:50;95658.44;;;7.53;100.00
24280;BME280;12395;42.808;23.408;2022-12-18T00:11:19;95664.56;;;7.46;100.00
24280;BME280;12395;42.808;23.408;2022-12-18T00:13:45;95651.09;;;7.33;100.00
24280;BME280;12395;42.808;23.408;2022-12-18T00:16:20;95639.44;;;7.19;100.00
24280;BME280;12395;42.808;23.408;2022-12-18T00:18:46;95663.44;;;7.32;100.00
24280;BME280;12395;42.808;23.408;2022-12-18T00:21:13;95677.63;;;7.31;100.00
24280;BME280;12395;42.808;23.408;2022-12-18T00:23:41;95675.00;;;7.31;100.00
24280;BME280;12395;42.808;23.408;2022-12-18T00:26:11;95676.84;;;7.23;100.00
24280;BME280;12395;42.808;23.408;2022-12-18T00:28:37;95673.06;;;7.09;100.00
24280;BME280;12395;42.808;23.408;2022-12-18T00:31:07;95668.47;;;6.87;100.00
24280;BME280;12395;42.808;23.408;2022-12-18T00:33:34;95680.97;;;6.93;100.00
24280;BME280;12395;42.808;23.408;2022-12-18T00:36:12;95694.97;;;6.85;100.00
24280;BME280;12395;42.808;23.408;2022-12-18T00:38:38;95687.41;;;6.74;100.00
24280;BME280;12395;42.808;23.408;2022-12-18T00:41:05;95698.94;;;6.81;100.00
24280;BME280;12395;42.808;23.408;2022-12-18T00:43:31;95686.09;;;6.70;100.00
24280;BME280;12395;42.808;23.408;2022-12-18T00:45:56;95683.94;;;6.66;100.00
24280;BME280;12395;42.808;23.408;2022-12-18T00:48:21;95677.84;;;6.65;100.00
24280;BME280;12395;42.808;23.408;2022-12-18T00:50:48;95695.13;;;6.76;100.00
24280;BME280;12395;42.808;23.408;2022-12-18T00:53:14;95688.22;;;6.75;100.00
24280;BME280;12395;42.808;23.408;2022-12-18T00:55:39;95679.34;;;6.68;100.00
24280;BME280;12395;42.808;23.408;2022-12-18T00:58:05;95676.22;;;6.64;100.00
24280;BME280;12395;42.808;23.408;2022-12-18T01:00:31;95690.88;;;6.75;100.00
24280;BME280;12395;42.808;23.408;2022-12-18T01:02:56;95688.56;;;6.80;100.00
24280;BME280;12395;42.808;23.408;2022-12-18T01:05:22;95689.22;;;6.82;100.00
24280;BME280;12395;42.808;23.408;2022-12-18T01:07:47;95703.72;;;6.86;100.00
24280;BME280;12395;42.808;23.408;2022-12-18T01:10:13;95700.72;;;6.89;100.00
24280;BME280;12395;42.808;23.408;2022-12-18T01:12:39;95683.59;;;6.85;100.00
24280;BME280;12395;42.808;23.408;2022-12-18T01:15:06;95703.03;;;6.92;100.00
24280;BME280;12395;42.808;23.408;2022-12-18T01:17:33;95701.06;;;6.86;100.00
24280;BME280;12395;42.808;23.408;2022-12-18T01:19:59;95709.63;;;6.88;100.00
24280;BME280;12395;42.808;23.408;2022-12-18T01:22:24;95714.72;;;6.89;100.00
24280;BME280;12395;42.808;23.408;2022-12-18T01:24:49;95715.38;;;6.91;100.00
24280;BME280;12395;42.808;23.408;2022-12-18T01:27:15;95705.50;;;6.85;100.00
24280;BME280;12395;42.808;23.408;2022-12-18T01:29:40;95697.28;;;6.72;100.00
24280;BME280;12395;42.808;23.408;2022-12-18T01:32:06;95711.25;;;6.81;100.00
24280;BME280;12395;42.808;23.408;2022-12-18T01:34:31;95706.66;;;6.67;100.00
24280;BME280;12395;42.808;23.408;2022-12-18T01:36:57;95719.00;;;6.58;100.00
24280;BME280;12395;42.808;23.408;2022-12-18T01:39:22;95703.69;;;6.46;100.00
24280;BME280;12395;42.808;23.408;2022-12-18T01:41:48;95737.09;;;6.53;100.00
24280;BME280;12395;42.808;23.408;2022-12-18T01:50:00;95733.09;;;6.33;100.00
24280;BME280;12395;42.808;23.408;2022-12-18T01:52:28;95741.31;;;6.30;100.00
24280;BME280;12395;42.808;23.408;2022-12-18T01:54:54;95741.13;;;6.23;100.00
24280;BME280;12395;42.808;23.408;2022-12-18T01:57:22;95743.09;;;6.21;100.00
24280;BME280;12395;42.808;23.408;2022-12-18T01:59:52;95755.25;;;6.22;100.00
24280;BME280;12395;42.808;23.408;2022-12-18T02:02:19;95753.94;;;6.18;100.00
24280;BME280;12395;42.808;23.408;2022-12-18T02:04:45;95737.44;;;6.00;100.00
24280;BME280;12395;42.808;23.408;2022-12-18T02:07:25;95760.97;;;6.10;100.00
24280;BME280;12395;42.808;23.408;2022-12-18T02:10:41;95768.94;;;5.92;100.00
24280;BME280;12395;42.808;23.408;2022-12-18T02:18:27;95764.09;;;5.80;100.00
24280;BME280;12395;42.808;23.408;2022-12-18T02:21:07;95767.81;;;5.69;100.00
24280;BME280;12395;42.808;23.408;2022-12-18T02:23:49;95768.56;;;5.79;100.00
24280;BME280;12395;42.808;23.408;2022-12-18T02:26:36;95767.72;;;5.79;100.00
24280;BME280;12395;42.808;23.408;2022-12-18T02:29:15;95774.72;;;5.88;100.00
24280;BME280;12395;42.808;23.408;2022-12-18T02:31:57;95779.81;;;5.89;100.00
24280;BME280;12395;42.808;23.408;2022-12-18T02:34:31;95785.06;;;5.89;100.00
24280;BME280;12395;42.808;23.408;2022-12-18T02:37:00;95774.84;;;5.86;100.00
24280;BME280;12395;42.808;23.408;2022-12-18T02:39:28;95791.16;;;5.90;100.00
24280;BME280;12395;42.808;23.408;2022-12-18T02:41:54;95779.47;;;5.92;100.00
24280;BME280;12395;42.808;23.408;2022-12-18T02:44:20;95774.03;;;5.86;100.00
24280;BME280;12395;42.808;23.408;2022-12-18T02:46:50;95766.69;;;5.72;100.00
24280;BME280;12395;42.808;23.408;2022-12-18T02:49:36;95786.44;;;5.76;100.00
24280;BME280;12395;42.808;23.408;2022-12-18T02:55:05;95790.19;;;5.47;100.00
24280;BME280;12395;42.808;23.408;2022-12-18T03:00:21;95786.03;;;5.37;100.00
24280;BME280;12395;42.808;23.408;2022-12-18T03:05:49;95789.53;;;5.45;100.00
24280;BME280;12395;42.808;23.408;2022-12-18T03:08:19;95787.44;;;5.49;100.00
24280;BME280;12395;42.808;23.408;2022-12-18T03:11:10;95801.69;;;5.46;100.00
24280;BME280;12395;42.808;23.408;2022-12-18T03:16:06;95804.53;;;5.27;100.00
24280;BME280;12395;42.808;23.408;2022-12-18T03:18:37;95804.75;;;5.34;100.00
24280;BME280;12395;42.808;23.408;2022-12-18T03:21:06;95798.50;;;5.35;100.00
24280;BME280;12395;42.808;23.408;2022-12-18T03:23:40;95804.78;;;5.42;100.00
24280;BME280;12395;42.808;23.408;2022-12-18T03:26:10;95813.03;;;5.47;100.00
24280;BME280;12395;42.808;23.408;2022-12-18T03:28:40;95825.19;;;5.48;100.00
24280;BME280;12395;42.808;23.408;2022-12-18T03:31:09;95828.44;;;5.42;100.00
24280;BME280;12395;42.808;23.408;2022-12-18T03:33:46;95838.34;;;5.48;100.00
24280;BME280;12395;42.808;23.408;2022-12-18T03:36:12;95824.09;;;5.33;100.00
24280;BME280;12395;42.808;23.408;2022-12-18T03:38:38;95842.03;;;5.37;100.00
24280;BME280;12395;42.808;23.408;2022-12-18T03:41:19;95859.34;;;5.48;100.00
24280;BME280;12395;42.808;23.408;2022-12-18T03:43:58;95846.16;;;5.40;100.00
24280;BME280;12395;42.808;23.408;2022-12-18T03:46:29;95848.94;;;5.38;100.00
24280;BME280;12395;42.808;23.408;2022-12-18T03:54:55;95842.19;;;5.36;100.00
24280;BME280;12395;42.808;23.408;2022-12-18T03:57:24;95867.25;;;5.48;100.00
24280;BME280;12395;42.808;23.408;2022-12-18T03:59:55;95859.53;;;5.46;100.00
24280;BME280;12395;42.808;23.408;2022-12-18T04:02:22;95851.41;;;5.40;100.00
24280;BME280;12395;42.808;23.408;2022-12-18T04:04:52;95860.81;;;5.42;100.00
24280;BME280;12395;42.808;23.408;2022-12-18T04:07:19;95861.09;;;5.39;100.00
24280;BME280;12395;42.808;23.408;2022-12-18T04:09:48;95849.75;;;5.39;100.00
24280;BME280;12395;42.808;23.408;2022-12-18T04:12:14;95865.91;;;5.44;100.00
24280;BME280;12395;42.808;23.408;2022-12-18T04:14:39;95882.72;;;5.51;100.00
24280;BME280;12395;42.808;23.408;2022-12-18T04:17:05;95875.78;;;5.50;100.00
24280;BME280;12395;42.808;23.408;2022-12-18T04:19:30;95869.81;;;5.40;100.00
24280;BME280;12395;42.808;23.408;2022-12-18T04:21:55;95884.81;;;5.47;100.00
24280;BME280;12395;42.808;23.408;2022-12-18T04:24:21;95864.72;;;5.38;100.00
24280;BME280;12395;42.808;23.408;2022-12-18T04:26:46;95889.78;;;5.51;100.00
24280;BME280;12395;42.808;23.408;2022-12-18T04:29:12;95898.09;;;5.46;100.00
24280;BME280;12395;42.808;23.408;2022-12-18T04:31:37;95894.06;;;5.34;100.00
24280;BME280;12395;42.808;23.408;2022-12-18T04:34:03;95908.41;;;5.39;100.00
24280;BME280;12395;42.808;23.408;2022-12-18T04:36:28;95898.50;;;5.33;100.00
24280;BME280;12395;42.808;23.408;2022-12-18T04:38:54;95904.34;;;5.27;100.00
24280;BME280;12395;42.808;23.408;2022-12-18T04:41:20;95888.66;;;5.18;100.00
24280;BME280;12395;42.808;23.408;2022-12-18T04:43:45;95900.22;;;5.07;100.00
24280;BME280;12395;42.808;23.408;2022-12-18T04:46:11;95910.59;;;5.09;100.00
24280;BME280;12395;42.808;23.408;2022-12-18T04:48:37;95909.09;;;5.06;100.00
24280;BME280;12395;42.808;23.408;2022-12-18T04:51:03;95920.84;;;5.20;100.00
24280;BME280;12395;42.808;23.408;2022-12-18T04:53:29;95905.91;;;5.03;100.00
24280;BME280;12395;42.808;23.408;2022-12-18T04:56:13;95930.00;;;5.16;100.00
24280;BME280;12395;42.808;23.408;2022-12-18T04:58:39;95920.09;;;5.10;100.00
24280;BME280;12395;42.808;23.408;2022-12-18T05:01:05;95946.69;;;5.24;100.00
24280;BME280;12395;42.808;23.408;2022-12-18T05:03:32;95931.97;;;5.14;100.00
24280;BME280;12395;42.808;23.408;2022-12-18T05:05:58;95951.69;;;5.18;100.00
24280;BME280;12395;42.808;23.408;2022-12-18T05:08:23;95927.91;;;5.02;100.00
24280;BME280;12395;42.808;23.408;2022-12-18T05:10:49;95936.50;;;4.94;100.00
24280;BME280;12395;42.808;23.408;2022-12-18T05:13:14;95951.47;;;4.94;100.00
24280;BME280;12395;42.808;23.408;2022-12-18T05:15:40;95944.22;;;4.78;100.00
24280;BME280;12395;42.808;23.408;2022-12-18T05:18:07;95965.56;;;4.93;100.00
24280;BME280;12395;42.808;23.408;2022-12-18T05:20:33;95966.16;;;4.87;100.00
24280;BME280;12395;42.808;23.408;2022-12-18T05:22:58;95965.88;;;4.90;100.00
24280;BME280;12395;42.808;23.408;2022-12-18T05:25:24;95982.97;;;4.94;100.00
24280;BME280;12395;42.808;23.408;2022-12-18T05:27:49;95980.63;;;4.91;100.00
24280;BME280;12395;42.808;23.408;2022-12-18T05:30:15;95983.94;;;4.93;100.00
24280;BME280;12395;42.808;23.408;2022-12-18T05:32:41;95994.44;;;4.93;100.00
24280;BME280;12395;42.808;23.408;2022-12-18T05:35:09;95982.34;;;4.82;100.00
24280;BME280;12395;42.808;23.408;2022-12-18T05:37:34;95998.47;;;4.87;100.00
24280;BME280;12395;42.808;23.408;2022-12-18T05:40:01;96002.38;;;4.83;100.00
24280;BME280;12395;42.808;23.408;2022-12-18T05:42:26;95986.22;;;4.78;100.00
24280;BME280;12395;42.808;23.408;2022-12-18T05:44:52;96002.91;;;4.87;100.00
24280;BME280;12395;42.808;23.408;2022-12-18T05:47:17;96012.81;;;4.93;100.00
24280;BME280;12395;42.808;23.408;2022-12-18T05:49:43;95988.78;;;4.88;100.00
24280;BME280;12395;42.808;23.408;2022-12-18T05:52:08;96008.56;;;4.92;100.00
24280;BME280;12395;42.808;23.408;2022-12-18T05:54:34;96020.41;;;4.96;100.00
24280;BME280;12395;42.808;23.408;2022-12-18T05:56:59;96010.63;;;4.88;100.00
24280;BME280;12395;42.808;23.408;2022-12-18T05:59:25;96021.94;;;4.98;100.00
24280;BME280;12395;42.808;23.408;2022-12-18T06:01:50;96007.88;;;4.90;100.00
24280;BME280;12395;42.808;23.408;2022-12-18T06:04:16;96017.13;;;4.94;100.00
24280;BME280;12395;42.808;23.408;2022-12-18T06:06:42;96029.06;;;5.06;100.00
24280;BME280;12395;42.808;23.408;2022-12-18T06:09:07;96015.53;;;5.01;100.00
24280;BME280;12395;42.808;23.408;2022-12-18T06:11:36;96038.53;;;5.16;100.00
24280;BME280;12395;42.808;23.408;2022-12-18T06:14:02;96034.81;;;5.19;100.00
24280;BME280;12395;42.808;23.408;2022-12-18T06:16:28;96040.44;;;5.24;100.00
24280;BME280;12395;42.808;23.408;2022-12-18T06:18:58;96027.88;;;5.18;100.00
24280;BME280;12395;42.808;23.408;2022-12-18T06:21:24;96031.06;;;5.21;100.00
24280;BME280;12395;42.808;23.408;2022-12-18T06:23:49;96047.88;;;5.28;100.00
24280;BME280;12395;42.808;23.408;2022-12-18T06:26:14;96047.34;;;5.25;100.00
24280;BME280;12395;42.808;23.408;2022-12-18T06:28:40;96045.25;;;5.28;100.00
24280;BME280;12395;42.808;23.408;2022-12-18T06:31:07;96036.31;;;5.21;100.00
24280;BME280;12395;42.808;23.408;2022-12-18T06:33:32;96034.22;;;5.25;100.00
24280;BME280;12395;42.808;23.408;2022-12-18T06:36:16;96058.94;;;5.32;100.00
24280;BME280;12395;42.808;23.408;2022-12-18T06:38:43;96030.06;;;5.22;100.00
24280;BME280;12395;42.808;23.408;2022-12-18T06:41:14;96051.41;;;5.37;100.00
24280;BME280;12395;42.808;23.408;2022-12-18T06:43:40;96070.66;;;5.37;100.00
24280;BME280;12395;42.808;23.408;2022-12-18T06:46:05;96051.78;;;5.24;100.00
24280;BME280;12395;42.808;23.408;2022-12-18T06:48:31;96073.78;;;5.41;100.00
24280;BME280;12395;42.808;23.408;2022-12-18T06:50:57;96081.63;;;5.51;100.00
24280;BME280;12395;42.808;23.408;2022-12-18T06:53:23;96076.78;;;5.56;100.00
24280;BME280;12395;42.808;23.408;2022-12-18T06:55:49;96074.28;;;5.54;100.00
24280;BME280;12395;42.808;23.408;2022-12-18T06:58:15;96087.53;;;5.62;100.00
24280;BME280;12395;42.808;23.408;2022-12-18T07:00:40;96062.41;;;5.50;100.00
24280;BME280;12395;42.808;23.408;2022-12-18T07:03:06;96094.44;;;5.63;100.00
24280;BME280;12395;42.808;23.408;2022-12-18T07:05:31;96097.72;;;5.65;100.00
24280;BME280;12395;42.808;23.408;2022-12-18T07:07:57;96085.47;;;5.56;100.00
24280;BME280;12395;42.808;23.408;2022-12-18T07:10:22;96079.25;;;5.57;100.00
24280;BME280;12395;42.808;23.408;2022-12-18T07:12:48;96092.31;;;5.49;100.00
24280;BME280;12395;42.808;23.408;2022-12-18T07:15:13;96097.50;;;5.31;100.00
24280;BME280;12395;42.808;23.408;2022-12-18T07:17:39;96095.50;;;5.16;100.00
24280;BME280;12395;42.808;23.408;2022-12-18T07:20:04;96093.47;;;5.10;100.00
24280;BME280;12395;42.808;23.408;2022-12-18T07:22:30;96088.69;;;4.96;100.00
24280;BME280;12395;42.808;23.408;2022-12-18T07:24:55;96108.28;;;5.01;100.00
24280;BME280;12395;42.808;23.408;2022-12-18T07:27:21;96094.31;;;5.01;100.00
24280;BME280;12395;42.808;23.408;2022-12-18T07:29:46;96087.59;;;4.98;100.00
24280;BME280;12395;42.808;23.408;2022-12-18T07:32:12;96101.06;;;5.13;100.00
24280;BME280;12395;42.808;23.408;2022-12-18T07:34:37;96100.22;;;5.12;100.00
24280;BME280;12395;42.808;23.408;2022-12-18T07:37:03;96103.97;;;5.10;100.00
24280;BME280;12395;42.808;23.408;2022-12-18T07:39:28;96099.97;;;5.06;100.00
24280;BME280;12395;42.808;23.408;2022-12-18T07:41:53;96108.22;;;5.20;100.00
24280;BME280;12395;42.808;23.408;2022-12-18T07:44:37;96104.38;;;5.15;100.00
24280;BME280;12395;42.808;23.408;2022-12-18T07:47:03;96108.88;;;5.22;100.00
24280;BME280;12395;42.808;23.408;2022-12-18T07:49:28;96099.03;;;5.07;100.00
24280;BME280;12395;42.808;23.408;2022-12-18T07:51:57;96100.66;;;5.08;100.00
24280;BME280;12395;42.808;23.408;2022-12-18T07:54:23;96109.53;;;5.07;100.00
24280;BME280;12395;42.808;23.408;2022-12-18T07:56:49;96118.19;;;5.17;100.00
24280;BME280;12395;42.808;23.408;2022-12-18T07:59:14;96115.16;;;5.12;100.00
24280;BME280;12395;42.808;23.408;2022-12-18T08:01:39;96121.00;;;5.06;100.00
24280;BME280;12395;42.808;23.408;2022-12-18T08:04:05;96121.78;;;5.16;100.00
24280;BME280;12395;42.808;23.408;2022-12-18T08:06:30;96131.16;;;5.18;100.00
24280;BME280;12395;42.808;23.408;2022-12-18T08:08:56;96114.88;;;5.15;100.00
24280;BME280;12395;42.808;23.408;2022-12-18T08:11:23;96126.44;;;5.22;100.00
24280;BME280;12395;42.808;23.408;2022-12-18T08:13:49;96154.59;;;5.39;100.00
24280;BME280;12395;42.808;23.408;2022-12-18T08:16:16;96134.16;;;5.33;100.00
24280;BME280;12395;42.808;23.408;2022-12-18T08:18:41;96156.16;;;5.32;100.00
24280;BME280;12395;42.808;23.408;2022-12-18T08:21:17;96138.38;;;5.16;100.00
24280;BME280;12395;42.808;23.408;2022-12-18T08:23:43;96163.00;;;5.15;99.84
24280;BME280;12395;42.808;23.408;2022-12-18T08:26:13;96164.38;;;5.10;100.00
24280;BME280;12395;42.808;23.408;2022-12-18T08:28:39;96151.84;;;4.94;100.00
24280;BME280;12395;42.808;23.408;2022-12-18T08:31:05;96152.25;;;4.99;100.00
24280;BME280;12395;42.808;23.408;2022-12-18T08:33:31;96168.00;;;5.09;100.00
24280;BME280;12395;42.808;23.408;2022-12-18T08:35:58;96153.03;;;5.09;100.00
24280;BME280;12395;42.808;23.408;2022-12-18T08:38:24;96166.06;;;5.11;100.00
24280;BME280;12395;42.808;23.408;2022-12-18T08:40:49;96161.34;;;5.05;100.00
24280;BME280;12395;42.808;23.408;2022-12-18T08:43:15;96173.25;;;5.09;99.56
24280;BME280;12395;42.808;23.408;2022-12-18T08:45:59;96173.38;;;5.07;98.77
24280;BME280;12395;42.808;23.408;2022-12-18T08:48:24;96185.97;;;5.04;98.43
24280;BME280;12395;42.808;23.408;2022-12-18T08:50:57;96187.88;;;5.11;99.64
24280;BME280;12395;42.808;23.408;2022-12-18T08:53:24;96188.31;;;5.07;99.46
24280;BME280;12395;42.808;23.408;2022-12-18T08:55:50;96181.56;;;5.04;100.00
24280;BME280;12395;42.808;23.408;2022-12-18T08:58:15;96184.03;;;5.06;100.00
24280;BME280;12395;42.808;23.408;2022-12-18T09:00:41;96175.19;;;5.07;99.83
24280;BME280;12395;42.808;23.408;2022-12-18T09:03:11;96169.22;;;5.05;99.46
24280;BME280;12395;42.808;23.408;2022-12-18T09:05:37;96155.31;;;4.95;99.53
24280;BME280;12395;42.808;23.408;2022-12-18T09:08:02;96187.63;;;5.05;99.78
24280;BME280;12395;42.808;23.408;2022-12-18T09:10:28;96185.69;;;5.07;99.63
24280;BME280;12395;42.808;23.408;2022-12-18T09:12:53;96186.50;;;5.07;99.01
24280;BME280;12395;42.808;23.408;2022-12-18T09:15:18;96191.22;;;5.04;98.87
24280;BME280;12395;42.808;23.408;2022-12-18T09:17:44;96172.44;;;4.99;99.37
24280;BME280;12395;42.808;23.408;2022-12-18T09:20:09;96168.94;;;5.08;100.00
24280;BME280;12395;42.808;23.408;2022-12-18T09:22:35;96164.63;;;5.16;99.46
24280;BME280;12395;42.808;23.408;2022-12-18T09:25:00;96180.09;;;5.29;98.47
24280;BME280;12395;42.808;23.408;2022-12-18T09:27:25;96179.22;;;5.38;98.32
24280;BME280;12395;42.808;23.408;2022-12-18T09:29:51;96177.97;;;5.42;97.43
24280;BME280;12395;42.808;23.408;2022-12-18T09:32:16;96175.84;;;5.55;97.19
24280;BME280;12395;42.808;23.408;2022-12-18T09:34:42;96185.75;;;5.61;97.41
24280;BME280;12395;42.808;23.408;2022-12-18T09:37:07;96190.97;;;5.71;97.03
24280;BME280;12395;42.808;23.408;2022-12-18T09:39:35;96193.03;;;5.77;96.31
24280;BME280;12395;42.808;23.408;2022-12-18T09:42:01;96176.22;;;5.60;96.20
24280;BME280;12395;42.808;23.408;2022-12-18T09:44:30;96201.78;;;5.68;96.63
24280;BME280;12395;42.808;23.408;2022-12-18T09:47:17;96205.69;;;5.54;94.58
24280;BME280;12395;42.808;23.408;2022-12-18T09:49:46;96183.63;;;5.47;95.39
24280;BME280;12395;42.808;23.408;2022-12-18T09:52:23;96196.53;;;5.68;96.06
24280;BME280;12395;42.808;23.408;2022-12-18T09:54:56;96183.22;;;5.42;94.35
24280;BME280;12395;42.808;23.408;2022-12-18T09:57:24;96196.69;;;5.57;95.01
24280;BME280;12395;42.808;23.408;2022-12-18T10:00:03;96190.59;;;5.66;93.92
24280;BME280;12395;42.808;23.408;2022-12-18T10:02:30;96198.97;;;5.79;94.73
24280;BME280;12395;42.808;23.408;2022-12-18T10:05:04;96173.69;;;5.68;95.68
24280;BME280;12395;42.808;23.408;2022-12-18T10:07:49;96184.59;;;5.73;95.91
24280;BME280;12395;42.808;23.408;2022-12-18T10:15:42;96185.56;;;5.99;95.78
24280;BME280;12395;42.808;23.408;2022-12-18T10:20:49;96185.53;;;6.09;94.99
24280;BME280;12395;42.808;23.408;2022-12-18T10:23:20;96190.63;;;6.10;94.71
24280;BME280;12395;42.808;23.408;2022-12-18T10:26:02;96197.78;;;6.00;94.51
24280;BME280;12395;42.808;23.408;2022-12-18T10:28:29;96196.28;;;5.88;94.88
24280;BME280;12395;42.808;23.408;2022-12-18T10:30:55;96202.03;;;5.74;95.07
24280;BME280;12395;42.808;23.408;2022-12-18T10:33:23;96187.94;;;5.66;96.24
24280;BME280;12395;42.808;23.408;2022-12-18T10:35:51;96174.38;;;5.70;97.36
24280;BME280;12395;42.808;23.408;2022-12-18T10:40:56;96199.38;;;5.84;96.48
24280;BME280;12395;42.808;23.408;2022-12-18T10:43:33;96177.09;;;5.78;98.07
24280;BME280;12395;42.808;23.408;2022-12-18T10:46:12;96188.81;;;5.93;97.96
24280;BME280;12395;42.808;23.408;2022-12-18T10:48:52;96170.91;;;5.97;97.64
24280;BME280;12395;42.808;23.408;2022-12-18T10:51:34;96179.88;;;6.04;98.33
24280;BME280;12395;42.808;23.408;2022-12-18T10:54:05;96180.34;;;6.17;98.39
24280;BME280;12395;42.808;23.408;2022-12-18T10:56:34;96177.63;;;6.27;98.79
24280;BME280;12395;42.808;23.408;2022-12-18T10:59:08;96181.25;;;6.26;99.32
24280;BME280;12395;42.808;23.408;2022-12-18T11:01:54;96185.31;;;6.38;98.91
24280;BME280;12395;42.808;23.408;2022-12-18T11:04:24;96179.16;;;6.47;97.35
24280;BME280;12395;42.808;23.408;2022-12-18T11:07:07;96158.97;;;6.38;96.43
24280;BME280;12395;42.808;23.408;2022-12-18T11:09:34;96179.09;;;6.56;96.71
24280;BME280;12395;42.808;23.408;2022-12-18T11:12:02;96166.88;;;6.55;95.74
24280;BME280;12395;42.808;23.408;2022-12-18T11:14:32;96184.25;;;6.66;97.06
24280;BME280;12395;42.808;23.408;2022-12-18T11:16:59;96176.72;;;6.71;97.03
24280;BME280;12395;42.808;23.408;2022-12-18T11:19:35;96187.69;;;6.84;96.32
24280;BME280;12395;42.808;23.408;2022-12-18T11:22:03;96179.63;;;6.85;95.79
24280;BME280;12395;42.808;23.408;2022-12-18T11:24:53;96172.91;;;6.91;94.90
24280;BME280;12395;42.808;23.408;2022-12-18T11:27:20;96178.25;;;6.99;93.25
24280;BME280;12395;42.808;23.408;2022-12-18T11:29:46;96191.13;;;7.02;93.22
24280;BME280;12395;42.808;23.408;2022-12-18T11:34:41;96195.88;;;6.98;93.52
24280;BME280;12395;42.808;23.408;2022-12-18T11:37:11;96187.69;;;6.84;94.16
24280;BME280;12395;42.808;23.408;2022-12-18T11:39:42;96204.25;;;6.76;94.47
24280;BME280;12395;42.808;23.408;2022-12-18T11:42:15;96196.34;;;6.59;95.76
24280;BME280;12395;42.808;23.408;2022-12-18T11:44:51;96193.03;;;6.57;96.78
24280;BME280;12395;42.808;23.408;2022-12-18T11:47:33;96188.78;;;6.56;96.64
24280;BME280;12395;42.808;23.408;2022-12-18T11:50:05;96188.16;;;6.62;96.03
24280;BME280;12395;42.808;23.408;2022-12-18T11:52:39;96176.44;;;6.56;96.66
24280;BME280;12395;42.808;23.408;2022-12-18T11:55:20;96192.97;;;6.66;96.44
24280;BME280;12395;42.808;23.408;2022-12-18T11:57:54;96191.41;;;6.73;96.24
24280;BME280;12395;42.808;23.408;2022-12-18T12:00:23;96176.19;;;6.67;96.54
24280;BME280;12395;42.808;23.408;2022-12-18T12:08:34;96180.88;;;6.56;95.78
24280;BME280;12395;42.808;23.408;2022-12-18T12:16:39;96184.63;;;6.53;95.15
24280;BME280;12395;42.808;23.408;2022-12-18T12:28:05;96199.75;;;6.34;97.11
24280;BME280;12395;42.808;23.408;2022-12-18T12:38:57;96203.38;;;6.33;95.65
24280;BME280;12395;42.808;23.408;2022-12-18T12:41:27;96200.06;;;6.31;94.48
24280;BME280;12395;42.808;23.408;2022-12-18T12:44:18;96208.25;;;6.45;93.91
24280;BME280;12395;42.808;23.408;2022-12-18T12:46:46;96197.19;;;6.42;94.70
24280;BME280;12395;42.808;23.408;2022-12-18T12:49:18;96188.94;;;6.54;94.82
24280;BME280;12395;42.808;23.408;2022-12-18T12:52:53;96197.28;;;6.50;94.50
24280;BME280;12395;42.808;23.408;2022-12-18T12:54:46;96201.50;;;6.60;93.86
24280;BME280;12395;42.808;23.408;2022-12-18T12:57:22;96197.63;;;6.55;91.19
24280;BME280;12395;42.808;23.408;2022-12-18T13:02:24;96213.16;;;6.58;92.18
24280;BME280;12395;42.808;23.408;2022-12-18T13:08:11;96209.53;;;6.59;91.55
24280;BME280;12395;42.808;23.408;2022-12-18T13:10:38;96222.56;;;6.60;89.95
24280;BME280;12395;42.808;23.408;2022-12-18T13:16:06;96232.94;;;6.62;90.52
24280;BME280;12395;42.808;23.408;2022-12-18T13:18:32;96224.19;;;6.61;90.69
24280;BME280;12395;42.808;23.408;2022-12-18T13:28:24;96245.50;;;6.68;90.55
24280;BME280;12395;42.808;23.408;2022-12-18T13:31:08;96244.38;;;6.70;90.57
24280;BME280;12395;42.808;23.408;2022-12-18T13:33:42;96243.59;;;6.78;90.21
24280;BME280;12395;42.808;23.408;2022-12-18T13:36:29;96250.91;;;6.84;90.45
24280;BME280;12395;42.808;23.408;2022-12-18T13:41:45;96256.94;;;6.94;89.19
24280;BME280;12395;42.808;23.408;2022-12-18T13:46:47;96253.41;;;6.85;89.35
24280;BME280;12395;42.808;23.408;2022-12-18T13:51:43;96252.78;;;6.74;89.94
24280;BME280;12395;42.808;23.408;2022-12-18T13:56:49;96264.91;;;6.67;90.61
24280;BME280;12395;42.808;23.408;2022-12-18T14:01:50;96270.75;;;6.61;90.74
24280;BME280;12395;42.808;23.408;2022-12-18T14:06:52;96267.31;;;6.43;88.94
24280;BME280;12395;42.808;23.408;2022-12-18T14:09:30;96268.56;;;6.39;88.61
24280;BME280;12395;42.808;23.408;2022-12-18T14:11:56;96272.69;;;6.23;88.84
24280;BME280;12395;42.808;23.408;2022-12-18T14:14:48;96277.41;;;6.20;88.50
24280;BME280;12395;42.808;23.408;2022-12-18T14:17:15;96275.91;;;6.17;89.69
24280;BME280;12395;42.808;23.408;2022-12-18T14:19:45;96265.66;;;5.87;89.12
24280;BME280;12395;42.808;23.408;2022-12-18T14:22:17;96281.72;;;5.84;90.17
24280;BME280;12395;42.808;23.408;2022-12-18T14:24:44;96272.63;;;5.69;90.34
24280;BME280;12395;42.808;23.408;2022-12-18T14:27:25;96299.84;;;5.78;90.97
24280;BME280;12395;42.808;23.408;2022-12-18T14:29:51;96291.44;;;5.74;92.11
24280;BME280;12395;42.808;23.408;2022-12-18T14:32:18;96296.84;;;5.63;90.65
24280;BME280;12395;42.808;23.408;2022-12-18T14:34:49;96272.16;;;5.46;89.61
24280;BME280;12395;42.808;23.408;2022-12-18T14:37:18;96289.53;;;5.57;89.29
24280;BME280;12395;42.808;23.408;2022-12-18T14:39:58;96297.72;;;5.54;90.37
24280;BME280;12395;42.808;23.408;2022-12-18T14:42:26;96289.19;;;5.33;89.93
24280;BME280;12395;42.808;23.408;2022-12-18T14:47:56;96307.16;;;5.37;89.23